Terminal Aerodrome Forecast
Issued by NWS

Home | Current Version | Previous Version | Text Only | Print | Product List | Glossary On
Versions: 1 2 3 4 5 6 7 8 9 10 11 12 13
000
FTUS42 TJSJ 301745
TAFISX
TAF
TISX 301745Z 3018/3118 04011G18KT P6SM VCSH FEW025 SCT035 SCT050
     FM302300 03006KT P6SM FEW025 FEW040
     FM311300 07013KT P6SM SCT030 SCT060=

USA.gov is the U.S. government's official web portal to all federal, state and local government web resources and services.